Bradfordton, Illinois
Current Conditions -  °F | °C
As of 6:52 PM on Monday 22 Dec 2014 (Local Time) from KSPI Reporting Station
Light Rain Light Rain  
Wind Chill: 42°   Ceiling: 600
Heat Index: 48°   Visibility: 5mi
Dew Point: 47°   Wind: 15mph
Humidity: 96%   Direction: 150°SSE
Pressure: 29.56"   Gusts: NA
Location:  39.854°N, 89.6295°W
Report Text: KSPI 230052Z 15013KT 5SM -RA BR OVC006 09/08 A2956 RMK AO2 SLP012 P0001 T00890083
Loading
Personal Weather Stations






























Interactive Weather Map New forecast layout! Learn more

10-Day Weather Forecast

Advertisements
Track Severe Weather on mobile